sensor_id;sensor_type;location;lat;lon;timestamp;pressure;altitude;pressure_sealevel;temperature;humidity
20696;BME280;10507;52.754;13.040;2023-02-23T00:00:25;100348.88;;;4.79;100.00
20696;BME280;10507;52.754;13.040;2023-02-23T00:02:57;100347.16;;;4.78;100.00
20696;BME280;10507;52.754;13.040;2023-02-23T00:05:28;100343.69;;;4.76;100.00
20696;BME280;10507;52.754;13.040;2023-02-23T00:07:56;100351.53;;;4.79;100.00
20696;BME280;10507;52.754;13.040;2023-02-23T00:10:24;100354.16;;;4.79;100.00
20696;BME280;10507;52.754;13.040;2023-02-23T00:12:56;100351.59;;;4.78;100.00
20696;BME280;10507;52.754;13.040;2023-02-23T00:15:25;100349.84;;;4.77;100.00
20696;BME280;10507;52.754;13.040;2023-02-23T00:17:53;100360.44;;;4.77;100.00
20696;BME280;10507;52.754;13.040;2023-02-23T00:20:23;100363.06;;;4.77;100.00
20696;BME280;10507;52.754;13.040;2023-02-23T00:22:54;100370.03;;;4.79;100.00
20696;BME280;10507;52.754;13.040;2023-02-23T00:25:23;100368.31;;;4.78;100.00
20696;BME280;10507;52.754;13.040;2023-02-23T00:27:51;100376.22;;;4.80;100.00
20696;BME280;10507;52.754;13.040;2023-02-23T00:30:20;100384.91;;;4.84;100.00
20696;BME280;10507;52.754;13.040;2023-02-23T00:32:49;100369.91;;;4.84;100.00
20696;BME280;10507;52.754;13.040;2023-02-23T00:35:18;100377.75;;;4.87;100.00
20696;BME280;10507;52.754;13.040;2023-02-23T00:37:47;100352.31;;;4.83;100.00
20696;BME280;10507;52.754;13.040;2023-02-23T00:40:17;100353.25;;;4.82;100.00
20696;BME280;10507;52.754;13.040;2023-02-23T00:42:47;100338.38;;;4.78;100.00
20696;BME280;10507;52.754;13.040;2023-02-23T00:45:15;100349.91;;;4.75;100.00
20696;BME280;10507;52.754;13.040;2023-02-23T00:47:45;100346.38;;;4.75;100.00
20696;BME280;10507;52.754;13.040;2023-02-23T00:50:16;100337.72;;;4.70;100.00
20696;BME280;10507;52.754;13.040;2023-02-23T00:52:44;100343.13;;;4.67;100.00
20696;BME280;10507;52.754;13.040;2023-02-23T00:55:14;100348.44;;;4.65;100.00
20696;BME280;10507;52.754;13.040;2023-02-23T00:57:42;100352.06;;;4.63;100.00
20696;BME280;10507;52.754;13.040;2023-02-23T01:00:11;100367.06;;;4.62;100.00
20696;BME280;10507;52.754;13.040;2023-02-23T01:02:44;100371.56;;;4.58;100.00
20696;BME280;10507;52.754;13.040;2023-02-23T01:05:12;100379.50;;;4.58;100.00
20696;BME280;10507;52.754;13.040;2023-02-23T01:07:40;100369.91;;;4.54;100.00
20696;BME280;10507;52.754;13.040;2023-02-23T01:10:13;100375.31;;;4.51;100.00
20696;BME280;10507;52.754;13.040;2023-02-23T01:12:48;100377.13;;;4.49;100.00
20696;BME280;10507;52.754;13.040;2023-02-23T01:15:17;100384.13;;;4.50;100.00
20696;BME280;10507;52.754;13.040;2023-02-23T01:17:45;100397.41;;;4.49;100.00
20696;BME280;10507;52.754;13.040;2023-02-23T01:20:15;100390.44;;;4.46;100.00
20696;BME280;10507;52.754;13.040;2023-02-23T01:22:46;100408.06;;;4.46;100.00
20696;BME280;10507;52.754;13.040;2023-02-23T01:25:17;100397.56;;;4.44;100.00
20696;BME280;10507;52.754;13.040;2023-02-23T01:27:45;100390.56;;;4.42;100.00
20696;BME280;10507;52.754;13.040;2023-02-23T01:30:14;100396.81;;;4.39;100.00
20696;BME280;10507;52.754;13.040;2023-02-23T01:32:42;100400.38;;;4.38;100.00
20696;BME280;10507;52.754;13.040;2023-02-23T01:35:10;100404.00;;;4.34;100.00
20696;BME280;10507;52.754;13.040;2023-02-23T01:37:40;100404.00;;;4.34;100.00
20696;BME280;10507;52.754;13.040;2023-02-23T01:40:12;100407.56;;;4.33;100.00
20696;BME280;10507;52.754;13.040;2023-02-23T01:42:44;100398.81;;;4.31;100.00
20696;BME280;10507;52.754;13.040;2023-02-23T01:45:34;100398.00;;;4.29;100.00
20696;BME280;10507;52.754;13.040;2023-02-23T01:48:06;100407.72;;;4.27;100.00
20696;BME280;10507;52.754;13.040;2023-02-23T01:50:42;100402.59;;;4.22;100.00
20696;BME280;10507;52.754;13.040;2023-02-23T01:53:11;100413.09;;;4.24;100.00
20696;BME280;10507;52.754;13.040;2023-02-23T01:55:40;100407.03;;;4.20;100.00
20696;BME280;10507;52.754;13.040;2023-02-23T01:58:13;100414.09;;;4.20;100.00
20696;BME280;10507;52.754;13.040;2023-02-23T02:00:47;100413.28;;;4.18;100.00
20696;BME280;10507;52.754;13.040;2023-02-23T02:03:22;100414.22;;;4.15;100.00
20696;BME280;10507;52.754;13.040;2023-02-23T02:05:52;100400.19;;;4.13;100.00
20696;BME280;10507;52.754;13.040;2023-02-23T02:08:22;100408.16;;;4.11;100.00
20696;BME280;10507;52.754;13.040;2023-02-23T02:10:52;100419.66;;;4.10;100.00
20696;BME280;10507;52.754;13.040;2023-02-23T02:13:26;100411.72;;;4.10;100.00
20696;BME280;10507;52.754;13.040;2023-02-23T02:16:16;100406.50;;;4.07;100.00
20696;BME280;10507;52.754;13.040;2023-02-23T02:19:12;100413.59;;;4.05;100.00
20696;BME280;10507;52.754;13.040;2023-02-23T02:22:28;100416.22;;;4.07;100.00
20696;BME280;10507;52.754;13.040;2023-02-23T02:25:33;100425.81;;;4.09;100.00
20696;BME280;10507;52.754;13.040;2023-02-23T02:31:56;100417.16;;;4.04;100.00
20696;BME280;10507;52.754;13.040;2023-02-23T02:34:48;100411.91;;;4.03;100.00
20696;BME280;10507;52.754;13.040;2023-02-23T02:37:44;100408.50;;;3.99;100.00
20696;BME280;10507;52.754;13.040;2023-02-23T02:40:19;100399.81;;;3.94;100.00
20696;BME280;10507;52.754;13.040;2023-02-23T02:42:59;100400.78;;;3.90;100.00
20696;BME280;10507;52.754;13.040;2023-02-23T02:45:40;100402.59;;;3.88;100.00
20696;BME280;10507;52.754;13.040;2023-02-23T02:48:16;100396.53;;;3.86;100.00
20696;BME280;10507;52.754;13.040;2023-02-23T02:50:47;100407.09;;;3.86;100.00
20696;BME280;10507;52.754;13.040;2023-02-23T02:53:22;100415.03;;;3.84;100.00
20696;BME280;10507;52.754;13.040;2023-02-23T02:55:53;100401.03;;;3.81;100.00
20696;BME280;10507;52.754;13.040;2023-02-23T02:58:25;100414.25;;;3.81;100.00
20696;BME280;10507;52.754;13.040;2023-02-23T03:00:54;100409.91;;;3.78;100.00
20696;BME280;10507;52.754;13.040;2023-02-23T03:03:41;100403.78;;;3.78;100.00
20696;BME280;10507;52.754;13.040;2023-02-23T03:06:29;100409.09;;;3.76;100.00
20696;BME280;10507;52.754;13.040;2023-02-23T03:09:26;100410.03;;;3.73;100.00
20696;BME280;10507;52.754;13.040;2023-02-23T03:12:25;100417.09;;;3.73;100.00
20696;BME280;10507;52.754;13.040;2023-02-23T03:15:23;100421.53;;;3.72;100.00
20696;BME280;10507;52.754;13.040;2023-02-23T03:18:25;100427.72;;;3.70;100.00
20696;BME280;10507;52.754;13.040;2023-02-23T03:21:25;100423.38;;;3.67;100.00
20696;BME280;10507;52.754;13.040;2023-02-23T03:24:23;100421.69;;;3.65;100.00
20696;BME280;10507;52.754;13.040;2023-02-23T03:27:19;100420.88;;;3.63;100.00
20696;BME280;10507;52.754;13.040;2023-02-23T03:30:12;100434.97;;;3.62;100.00
20696;BME280;10507;52.754;13.040;2023-02-23T03:33:05;100444.72;;;3.60;100.00
20696;BME280;10507;52.754;13.040;2023-02-23T03:35:58;100447.34;;;3.60;100.00
20696;BME280;10507;52.754;13.040;2023-02-23T03:38:48;100451.78;;;3.59;100.00
20696;BME280;10507;52.754;13.040;2023-02-23T03:41:36;100450.00;;;3.58;100.00
20696;BME280;10507;52.754;13.040;2023-02-23T03:44:30;100455.38;;;3.55;100.00
20696;BME280;10507;52.754;13.040;2023-02-23T03:47:17;100455.44;;;3.52;100.00
20696;BME280;10507;52.754;13.040;2023-02-23T03:50:11;100459.84;;;3.51;100.00
20696;BME280;10507;52.754;13.040;2023-02-23T03:52:59;100458.16;;;3.49;100.00
20696;BME280;10507;52.754;13.040;2023-02-23T03:55:51;100468.72;;;3.49;100.00
20696;BME280;10507;52.754;13.040;2023-02-23T03:58:40;100459.09;;;3.46;100.00
20696;BME280;10507;52.754;13.040;2023-02-23T04:01:30;100455.59;;;3.46;100.00
20696;BME280;10507;52.754;13.040;2023-02-23T04:04:17;100454.81;;;3.41;100.00
20696;BME280;10507;52.754;13.040;2023-02-23T04:07:05;100460.16;;;3.39;100.00
20696;BME280;10507;52.754;13.040;2023-02-23T04:09:52;100473.38;;;3.38;100.00
20696;BME280;10507;52.754;13.040;2023-02-23T04:12:45;100479.59;;;3.35;100.00
20696;BME280;10507;52.754;13.040;2023-02-23T04:15:36;100471.72;;;3.33;100.00
20696;BME280;10507;52.754;13.040;2023-02-23T04:18:06;100466.53;;;3.30;100.00
20696;BME280;10507;52.754;13.040;2023-02-23T04:20:34;100470.03;;;3.29;100.00
20696;BME280;10507;52.754;13.040;2023-02-23T04:23:02;100475.41;;;3.26;100.00
20696;BME280;10507;52.754;13.040;2023-02-23T04:25:30;100480.69;;;3.26;100.00
20696;BME280;10507;52.754;13.040;2023-02-23T04:27:57;100479.88;;;3.23;100.00
20696;BME280;10507;52.754;13.040;2023-02-23T04:30:25;100484.28;;;3.22;100.00
20696;BME280;10507;52.754;13.040;2023-02-23T04:32:55;100474.66;;;3.20;100.00
20696;BME280;10507;52.754;13.040;2023-02-23T04:35:26;100476.50;;;3.16;100.00
20696;BME280;10507;52.754;13.040;2023-02-23T04:37:55;100489.69;;;3.16;100.00
20696;BME280;10507;52.754;13.040;2023-02-23T04:40:23;100483.53;;;3.17;100.00
20696;BME280;10507;52.754;13.040;2023-02-23T04:42:52;100480.97;;;3.14;100.00
20696;BME280;10507;52.754;13.040;2023-02-23T04:45:21;100494.16;;;3.14;100.00
20696;BME280;10507;52.754;13.040;2023-02-23T04:47:50;100492.31;;;3.16;100.00
20696;BME280;10507;52.754;13.040;2023-02-23T04:50:18;100483.63;;;3.12;100.00
20696;BME280;10507;52.754;13.040;2023-02-23T04:52:49;100487.22;;;3.10;100.00
20696;BME280;10507;52.754;13.040;2023-02-23T04:55:20;100488.09;;;3.09;100.00
20696;BME280;10507;52.754;13.040;2023-02-23T04:57:50;100489.91;;;3.07;100.00
20696;BME280;10507;52.754;13.040;2023-02-23T05:00:18;100503.06;;;3.07;100.00
20696;BME280;10507;52.754;13.040;2023-02-23T05:02:47;100502.25;;;3.05;100.00
20696;BME280;10507;52.754;13.040;2023-02-23T05:05:16;100505.72;;;3.07;100.00
20696;BME280;10507;52.754;13.040;2023-02-23T05:07:46;100511.91;;;3.06;100.00
20696;BME280;10507;52.754;13.040;2023-02-23T05:10:15;100507.53;;;3.05;100.00
20696;BME280;10507;52.754;13.040;2023-02-23T05:12:43;100511.91;;;3.06;100.00
20696;BME280;10507;52.754;13.040;2023-02-23T05:15:12;100505.78;;;3.04;100.00
20696;BME280;10507;52.754;13.040;2023-02-23T05:17:40;100509.28;;;3.06;100.00
20696;BME280;10507;52.754;13.040;2023-02-23T05:20:09;100507.53;;;3.05;100.00
20696;BME280;10507;52.754;13.040;2023-02-23T05:22:37;100513.72;;;3.04;100.00
20696;BME280;10507;52.754;13.040;2023-02-23T05:25:06;100510.22;;;3.03;100.00
20696;BME280;10507;52.754;13.040;2023-02-23T05:27:36;100510.25;;;3.00;100.00
20696;BME280;10507;52.754;13.040;2023-02-23T05:30:05;100515.47;;;3.03;100.00
20696;BME280;10507;52.754;13.040;2023-02-23T05:32:35;100514.63;;;3.03;100.00
20696;BME280;10507;52.754;13.040;2023-02-23T05:35:03;100514.63;;;3.03;100.00
20696;BME280;10507;52.754;13.040;2023-02-23T05:37:31;100516.38;;;3.02;100.00
20696;BME280;10507;52.754;13.040;2023-02-23T05:40:00;100512.00;;;3.03;100.00
20696;BME280;10507;52.754;13.040;2023-02-23T05:42:28;100520.69;;;3.06;100.00
20696;BME280;10507;52.754;13.040;2023-02-23T05:44:57;100508.44;;;3.04;100.00
20696;BME280;10507;52.754;13.040;2023-02-23T05:47:24;100500.59;;;3.01;100.00
20696;BME280;10507;52.754;13.040;2023-02-23T05:49:52;100503.25;;;3.01;100.00
20696;BME280;10507;52.754;13.040;2023-02-23T05:52:20;100501.47;;;3.00;100.00
20696;BME280;10507;52.754;13.040;2023-02-23T05:54:48;100502.44;;;2.96;100.00
20696;BME280;10507;52.754;13.040;2023-02-23T05:57:16;100507.78;;;2.92;100.00
20696;BME280;10507;52.754;13.040;2023-02-23T05:59:43;100502.59;;;2.89;100.00
20696;BME280;10507;52.754;13.040;2023-02-23T06:02:13;100489.50;;;2.85;100.00
20696;BME280;10507;52.754;13.040;2023-02-23T06:04:40;100499.25;;;2.81;100.00
20696;BME280;10507;52.754;13.040;2023-02-23T06:07:08;100502.84;;;2.77;100.00
20696;BME280;10507;52.754;13.040;2023-02-23T06:09:36;100510.75;;;2.77;100.00
20696;BME280;10507;52.754;13.040;2023-02-23T06:12:04;100522.19;;;2.76;100.00
20696;BME280;10507;52.754;13.040;2023-02-23T06:14:32;100529.28;;;2.74;100.00
20696;BME280;10507;52.754;13.040;2023-02-23T06:17:00;100524.00;;;2.73;100.00
20696;BME280;10507;52.754;13.040;2023-02-23T06:19:29;100538.97;;;2.72;100.00
20696;BME280;10507;52.754;13.040;2023-02-23T06:21:58;100538.09;;;2.72;100.00
20696;BME280;10507;52.754;13.040;2023-02-23T06:24:26;100545.13;;;2.71;100.00
20696;BME280;10507;52.754;13.040;2023-02-23T06:26:54;100548.59;;;2.73;100.00
20696;BME280;10507;52.754;13.040;2023-02-23T06:29:22;100557.41;;;2.74;100.00
20696;BME280;10507;52.754;13.040;2023-02-23T06:31:50;100576.63;;;2.79;100.00
20696;BME280;10507;52.754;13.040;2023-02-23T06:34:18;100582.66;;;2.84;100.00
20696;BME280;10507;52.754;13.040;2023-02-23T06:36:47;100573.00;;;2.84;100.00
20696;BME280;10507;52.754;13.040;2023-02-23T06:39:15;100575.50;;;2.90;100.00
20696;BME280;10507;52.754;13.040;2023-02-23T06:41:42;100579.00;;;2.92;100.00
20696;BME280;10507;52.754;13.040;2023-02-23T06:44:10;100575.34;;;2.98;100.00
20696;BME280;10507;52.754;13.040;2023-02-23T06:46:38;100570.78;;;3.08;100.00
20696;BME280;10507;52.754;13.040;2023-02-23T06:49:06;100556.63;;;3.12;100.00
20696;BME280;10507;52.754;13.040;2023-02-23T06:51:34;100563.50;;;3.19;100.00
20696;BME280;10507;52.754;13.040;2023-02-23T06:54:03;100546.72;;;3.23;100.00
20696;BME280;10507;52.754;13.040;2023-02-23T06:56:31;100535.97;;;3.31;100.00
20696;BME280;10507;52.754;13.040;2023-02-23T06:58:58;100538.38;;;3.42;100.00
20696;BME280;10507;52.754;13.040;2023-02-23T07:01:26;100520.66;;;3.48;100.00
20696;BME280;10507;52.754;13.040;2023-02-23T07:03:55;100523.88;;;3.61;100.00
20696;BME280;10507;52.754;13.040;2023-02-23T07:06:22;100486.91;;;3.61;100.00
20696;BME280;10507;52.754;13.040;2023-02-23T07:08:50;100479.00;;;3.61;100.00
20696;BME280;10507;52.754;13.040;2023-02-23T07:11:19;100456.94;;;3.64;100.00
20696;BME280;10507;52.754;13.040;2023-02-23T07:13:47;100432.34;;;3.62;100.00
20696;BME280;10507;52.754;13.040;2023-02-23T07:16:15;100419.16;;;3.62;100.00
20696;BME280;10507;52.754;13.040;2023-02-23T07:18:43;100440.91;;;3.70;100.00
20696;BME280;10507;52.754;13.040;2023-02-23T07:21:10;100410.25;;;3.66;100.00
20696;BME280;10507;52.754;13.040;2023-02-23T07:23:38;100425.91;;;3.72;100.00
20696;BME280;10507;52.754;13.040;2023-02-23T07:26:06;100417.97;;;3.73;100.00
20696;BME280;10507;52.754;13.040;2023-02-23T07:28:36;100414.44;;;3.74;100.00
20696;BME280;10507;52.754;13.040;2023-02-23T07:31:04;100408.25;;;3.74;100.00
20696;BME280;10507;52.754;13.040;2023-02-23T07:33:32;100423.91;;;3.82;100.00
20696;BME280;10507;52.754;13.040;2023-02-23T07:36:00;100433.44;;;3.87;100.00
20696;BME280;10507;52.754;13.040;2023-02-23T07:38:28;100417.47;;;3.92;100.00
20696;BME280;10507;52.754;13.040;2023-02-23T07:40:56;100426.94;;;4.01;100.00
20696;BME280;10507;52.754;13.040;2023-02-23T07:43:24;100445.16;;;4.11;100.00
20696;BME280;10507;52.754;13.040;2023-02-23T07:45:53;100444.88;;;4.21;100.00
20696;BME280;10507;52.754;13.040;2023-02-23T07:48:21;100380.00;;;4.10;100.00
20696;BME280;10507;52.754;13.040;2023-02-23T07:50:48;100421.94;;;4.23;100.00
20696;BME280;10507;52.754;13.040;2023-02-23T07:53:16;100418.22;;;4.30;100.00
20696;BME280;10507;52.754;13.040;2023-02-23T07:55:44;100393.34;;;4.37;100.00
20696;BME280;10507;52.754;13.040;2023-02-23T07:58:12;100400.19;;;4.44;100.00
20696;BME280;10507;52.754;13.040;2023-02-23T08:00:40;100403.47;;;4.52;100.00
20696;BME280;10507;52.754;13.040;2023-02-23T08:03:09;100391.72;;;4.63;100.00
20696;BME280;10507;52.754;13.040;2023-02-23T08:05:38;100397.44;;;4.77;100.00
20696;BME280;10507;52.754;13.040;2023-02-23T08:08:06;100405.72;;;4.96;100.00
20696;BME280;10507;52.754;13.040;2023-02-23T08:10:34;100381.50;;;5.08;100.00
20696;BME280;10507;52.754;13.040;2023-02-23T08:13:02;100350.09;;;5.24;100.00
20696;BME280;10507;52.754;13.040;2023-02-23T08:15:30;100321.41;;;5.38;99.97
20696;BME280;10507;52.754;13.040;2023-02-23T08:17:58;100324.97;;;5.62;98.81
20696;BME280;10507;52.754;13.040;2023-02-23T08:20:28;100310.19;;;5.82;98.65
20696;BME280;10507;52.754;13.040;2023-02-23T08:22:56;100286.56;;;6.01;97.76
20696;BME280;10507;52.754;13.040;2023-02-23T08:25:25;100274.28;;;6.22;97.19
20696;BME280;10507;52.754;13.040;2023-02-23T08:27:53;100228.38;;;6.21;96.31
20696;BME280;10507;52.754;13.040;2023-02-23T08:30:23;100227.78;;;6.37;95.76
20696;BME280;10507;52.754;13.040;2023-02-23T08:32:51;100207.41;;;6.59;95.44
20696;BME280;10507;52.754;13.040;2023-02-23T08:35:19;100021.06;;;6.34;95.15
20696;BME280;10507;52.754;13.040;2023-02-23T08:37:48;100083.38;;;6.23;95.25
20696;BME280;10507;52.754;13.040;2023-02-23T08:40:16;100236.63;;;6.36;96.77
20696;BME280;10507;52.754;13.040;2023-02-23T08:42:46;100158.41;;;6.26;96.26
20696;BME280;10507;52.754;13.040;2023-02-23T08:45:18;100180.66;;;6.21;96.66
20696;BME280;10507;52.754;13.040;2023-02-23T08:47:46;100221.84;;;6.30;96.87
20696;BME280;10507;52.754;13.040;2023-02-23T08:50:14;100173.44;;;6.25;96.83
20696;BME280;10507;52.754;13.040;2023-02-23T08:52:41;100225.84;;;6.40;96.77
20696;BME280;10507;52.754;13.040;2023-02-23T08:55:10;100212.78;;;6.36;97.47
20696;BME280;10507;52.754;13.040;2023-02-23T08:57:39;100155.47;;;6.32;96.79
20696;BME280;10507;52.754;13.040;2023-02-23T09:00:08;100260.25;;;6.42;97.25
20696;BME280;10507;52.754;13.040;2023-02-23T09:02:40;100252.56;;;6.58;97.09
20696;BME280;10507;52.754;13.040;2023-02-23T09:05:09;100274.53;;;6.61;97.62
20696;BME280;10507;52.754;13.040;2023-02-23T09:07:38;100277.97;;;6.63;97.47
20696;BME280;10507;52.754;13.040;2023-02-23T09:10:10;100298.09;;;6.69;97.15
20696;BME280;10507;52.754;13.040;2023-02-23T09:12:38;100278.78;;;6.65;97.73
20696;BME280;10507;52.754;13.040;2023-02-23T09:15:07;100281.06;;;6.75;97.35
20696;BME280;10507;52.754;13.040;2023-02-23T09:17:35;100304.66;;;6.82;97.22
20696;BME280;10507;52.754;13.040;2023-02-23T09:20:04;100353.28;;;7.05;97.83
20696;BME280;10507;52.754;13.040;2023-02-23T09:22:33;100324.75;;;7.10;98.03
20696;BME280;10507;52.754;13.040;2023-02-23T09:25:03;100339.56;;;7.16;98.12
20696;BME280;10507;52.754;13.040;2023-02-23T09:27:32;100398.91;;;7.37;98.59
20696;BME280;10507;52.754;13.040;2023-02-23T09:30:00;100398.06;;;7.57;97.18
20696;BME280;10507;52.754;13.040;2023-02-23T09:32:28;100328.44;;;7.48;96.86
20696;BME280;10507;52.754;13.040;2023-02-23T09:34:56;100346.78;;;7.55;97.53
20696;BME280;10507;52.754;13.040;2023-02-23T09:37:24;100318.63;;;7.50;97.98
20696;BME280;10507;52.754;13.040;2023-02-23T09:39:52;100370.72;;;7.75;96.92
20696;BME280;10507;52.754;13.040;2023-02-23T09:42:34;100373.53;;;7.93;97.31
20696;BME280;10507;52.754;13.040;2023-02-23T09:45:17;100296.38;;;7.94;96.56
20696;BME280;10507;52.754;13.040;2023-02-23T09:47:59;100229.09;;;7.73;97.04
20696;BME280;10507;52.754;13.040;2023-02-23T09:50:33;100357.00;;;8.05;96.76
20696;BME280;10507;52.754;13.040;2023-02-23T09:53:06;100370.38;;;8.24;96.00
20696;BME280;10507;52.754;13.040;2023-02-23T09:55:38;100359.78;;;8.43;95.29
20696;BME280;10507;52.754;13.040;2023-02-23T09:58:18;100332.41;;;8.60;94.75
20696;BME280;10507;52.754;13.040;2023-02-23T10:00:54;100296.56;;;8.67;94.29
20696;BME280;10507;52.754;13.040;2023-02-23T10:03:29;100292.09;;;8.86;93.85
20696;BME280;10507;52.754;13.040;2023-02-23T10:06:00;100242.75;;;8.79;93.82
20696;BME280;10507;52.754;13.040;2023-02-23T10:08:40;100222.56;;;8.75;94.38
20696;BME280;10507;52.754;13.040;2023-02-23T10:11:18;100247.41;;;8.93;94.19
20696;BME280;10507;52.754;13.040;2023-02-23T10:13:55;100260.41;;;8.99;93.71
20696;BME280;10507;52.754;13.040;2023-02-23T10:16:35;100282.47;;;9.01;94.74
20696;BME280;10507;52.754;13.040;2023-02-23T10:19:13;100241.16;;;9.11;93.99
20696;BME280;10507;52.754;13.040;2023-02-23T10:21:47;100236.44;;;9.16;93.35
20696;BME280;10507;52.754;13.040;2023-02-23T10:24:23;100190.38;;;9.14;93.02
20696;BME280;10507;52.754;13.040;2023-02-23T10:26:53;100166.56;;;9.11;93.75
20696;BME280;10507;52.754;13.040;2023-02-23T10:29:27;100172.31;;;9.04;93.83
20696;BME280;10507;52.754;13.040;2023-02-23T10:31:59;100240.81;;;9.00;94.83
20696;BME280;10507;52.754;13.040;2023-02-23T10:34:30;100220.38;;;9.01;95.15
20696;BME280;10507;52.754;13.040;2023-02-23T10:37:00;100283.59;;;8.97;95.88
20696;BME280;10507;52.754;13.040;2023-02-23T10:39:28;100304.97;;;8.95;95.83
20696;BME280;10507;52.754;13.040;2023-02-23T10:41:57;100304.34;;;8.90;96.55
20696;BME280;10507;52.754;13.040;2023-02-23T10:44:28;100376.19;;;9.09;97.15
20696;BME280;10507;52.754;13.040;2023-02-23T10:46:58;100392.22;;;9.27;96.53
20696;BME280;10507;52.754;13.040;2023-02-23T10:49:38;100396.34;;;9.51;95.87
20696;BME280;10507;52.754;13.040;2023-02-23T10:52:10;100304.16;;;9.47;95.61
20696;BME280;10507;52.754;13.040;2023-02-23T10:54:42;100332.16;;;9.56;95.47
20696;BME280;10507;52.754;13.040;2023-02-23T10:57:20;100276.66;;;9.47;95.31
20696;BME280;10507;52.754;13.040;2023-02-23T11:00:21;100310.88;;;9.54;95.37
20696;BME280;10507;52.754;13.040;2023-02-23T11:02:54;100328.63;;;9.55;96.16
20696;BME280;10507;52.754;13.040;2023-02-23T11:05:35;100381.38;;;9.84;95.65
20696;BME280;10507;52.754;13.040;2023-02-23T11:08:27;100236.84;;;9.77;94.67
20696;BME280;10507;52.754;13.040;2023-02-23T11:10:59;100178.97;;;9.46;95.42
20696;BME280;10507;52.754;13.040;2023-02-23T11:13:33;100245.91;;;9.57;95.61
20696;BME280;10507;52.754;13.040;2023-02-23T11:16:05;100308.84;;;9.77;95.88
20696;BME280;10507;52.754;13.040;2023-02-23T11:18:36;100260.25;;;9.72;95.40
20696;BME280;10507;52.754;13.040;2023-02-23T11:21:10;100343.72;;;9.90;95.78
20696;BME280;10507;52.754;13.040;2023-02-23T11:23:40;100286.69;;;9.92;95.48
20696;BME280;10507;52.754;13.040;2023-02-23T11:26:21;100328.31;;;10.12;95.17
20696;BME280;10507;52.754;13.040;2023-02-23T11:28:56;100287.44;;;10.12;95.35
20696;BME280;10507;52.754;13.040;2023-02-23T11:31:29;100268.59;;;10.15;94.70
20696;BME280;10507;52.754;13.040;2023-02-23T11:34:01;100172.75;;;9.96;94.52
20696;BME280;10507;52.754;13.040;2023-02-23T11:36:31;100242.75;;;9.99;95.49
20696;BME280;10507;52.754;13.040;2023-02-23T11:39:06;100189.25;;;9.87;95.52
20696;BME280;10507;52.754;13.040;2023-02-23T11:41:41;100202.97;;;9.79;96.22
20696;BME280;10507;52.754;13.040;2023-02-23T11:44:19;100186.78;;;9.66;96.20
20696;BME280;10507;52.754;13.040;2023-02-23T11:46:49;100271.63;;;9.75;96.86
20696;BME280;10507;52.754;13.040;2023-02-23T11:49:20;100310.16;;;9.86;96.93
20696;BME280;10507;52.754;13.040;2023-02-23T11:51:51;100251.53;;;9.68;97.75
20696;BME280;10507;52.754;13.040;2023-02-23T11:54:24;100333.47;;;9.82;98.35
20696;BME280;10507;52.754;13.040;2023-02-23T11:56:54;100243.72;;;9.65;97.72
20696;BME280;10507;52.754;13.040;2023-02-23T11:59:26;100304.47;;;9.76;98.04
20696;BME280;10507;52.754;13.040;2023-02-23T12:02:03;100301.63;;;9.79;97.79
20696;BME280;10507;52.754;13.040;2023-02-23T12:04:34;100351.72;;;9.90;98.57
20696;BME280;10507;52.754;13.040;2023-02-23T12:07:24;100370.63;;;10.03;97.85
20696;BME280;10507;52.754;13.040;2023-02-23T12:09:59;100383.72;;;10.07;98.26
20696;BME280;10507;52.754;13.040;2023-02-23T12:12:41;100348.09;;;10.08;97.55
20696;BME280;10507;52.754;13.040;2023-02-23T12:15:16;100357.41;;;10.17;97.92
20696;BME280;10507;52.754;13.040;2023-02-23T12:17:50;100239.66;;;9.91;97.63
20696;BME280;10507;52.754;13.040;2023-02-23T12:20:23;100285.44;;;9.99;98.05
20696;BME280;10507;52.754;13.040;2023-02-23T12:22:55;100249.91;;;9.99;97.56
20696;BME280;10507;52.754;13.040;2023-02-23T12:25:32;100295.94;;;10.03;97.95
20696;BME280;10507;52.754;13.040;2023-02-23T12:28:05;100292.94;;;10.09;97.72
20696;BME280;10507;52.754;13.040;2023-02-23T12:30:47;100281.66;;;10.04;98.26
20696;BME280;10507;52.754;13.040;2023-02-23T12:33:23;100298.91;;;10.14;97.85
20696;BME280;10507;52.754;13.040;2023-02-23T12:36:01;100280.72;;;10.05;98.51
20696;BME280;10507;52.754;13.040;2023-02-23T12:38:46;100308.47;;;10.18;97.98
20696;BME280;10507;52.754;13.040;2023-02-23T12:41:20;100314.00;;;10.31;97.74
20696;BME280;10507;52.754;13.040;2023-02-23T12:43:57;100302.84;;;10.40;97.01
20696;BME280;10507;52.754;13.040;2023-02-23T12:46:29;100263.84;;;10.37;97.08
20696;BME280;10507;52.754;13.040;2023-02-23T12:49:10;100304.84;;;10.52;97.35
20696;BME280;10507;52.754;13.040;2023-02-23T12:51:43;100283.03;;;10.60;96.45
20696;BME280;10507;52.754;13.040;2023-02-23T12:54:14;100191.63;;;10.40;96.65
20696;BME280;10507;52.754;13.040;2023-02-23T12:56:53;100241.88;;;10.48;96.33
20696;BME280;10507;52.754;13.040;2023-02-23T12:59:50;100213.22;;;10.52;96.60
20696;BME280;10507;52.754;13.040;2023-02-23T13:02:28;100247.41;;;10.61;96.26
20696;BME280;10507;52.754;13.040;2023-02-23T13:05:09;100142.91;;;10.37;96.46
20696;BME280;10507;52.754;13.040;2023-02-23T13:07:50;100218.91;;;10.46;96.45
20696;BME280;10507;52.754;13.040;2023-02-23T13:10:40;100198.00;;;10.54;96.61
20696;BME280;10507;52.754;13.040;2023-02-23T13:13:21;100256.34;;;10.60;96.89
20696;BME280;10507;52.754;13.040;2023-02-23T13:15:58;100241.28;;;10.59;97.09
20696;BME280;10507;52.754;13.040;2023-02-23T13:18:31;100279.59;;;10.74;97.39